createdAt,value
2018-01-26T00:02:11.862Z,24.45
2018-01-26T00:04:41.371Z,24.43
2018-01-26T00:07:11.345Z,24.41
2018-01-26T00:09:41.307Z,24.42
2018-01-26T00:12:10.772Z,24.43
2018-01-26T00:14:40.105Z,24.42
2018-01-26T00:17:10.525Z,24.39
2018-01-26T00:19:39.758Z,24.38
2018-01-26T00:22:09.192Z,24.38
2018-01-26T00:24:38.429Z,24.38
2018-01-26T00:27:07.670Z,24.36
2018-01-26T00:29:36.889Z,24.35
2018-01-26T00:32:06.114Z,24.35
2018-01-26T00:34:35.359Z,24.34
2018-01-26T00:37:04.596Z,24.33
2018-01-26T00:39:33.861Z,24.32
2018-01-26T00:42:03.083Z,24.30
2018-01-26T00:44:32.319Z,24.31
2018-01-26T00:47:01.543Z,24.29
2018-01-26T00:49:30.874Z,24.30
2018-01-26T00:52:00.069Z,24.27
2018-01-26T00:54:29.358Z,24.23
2018-01-26T00:56:58.623Z,24.24
2018-01-26T00:59:27.868Z,24.20
2018-01-26T01:01:57.188Z,24.18
2018-01-26T01:04:26.484Z,24.17
2018-01-26T01:06:56.529Z,24.21
2018-01-26T01:09:25.846Z,24.21
2018-01-26T01:11:56.002Z,24.20
2018-01-26T01:14:25.282Z,24.18
2018-01-26T01:16:55.185Z,24.18
2018-01-26T01:19:25.315Z,24.20
2018-01-26T01:21:55.155Z,24.24
2018-01-26T01:24:24.978Z,24.28
2018-01-26T01:29:27.673Z,24.34
2018-01-26T01:31:57.847Z,24.39
2018-01-26T01:34:27.068Z,24.20
2018-01-26T01:36:56.307Z,23.48
2018-01-26T01:39:25.580Z,23.08
2018-01-26T01:41:54.791Z,22.87
2018-01-26T01:44:23.997Z,22.52
2018-01-26T01:46:53.292Z,22.32
2018-01-26T01:49:22.547Z,22.14
2018-01-26T01:51:51.989Z,21.94
2018-01-26T01:54:21.249Z,21.92
2018-01-26T01:56:50.500Z,22.08
2018-01-26T01:59:19.781Z,21.58
2018-01-26T02:01:49.043Z,21.63
2018-01-26T02:04:18.304Z,22.03
2018-01-26T02:06:47.583Z,22.40
2018-01-26T02:09:18.313Z,22.63
2018-01-26T02:11:47.569Z,22.77
2018-01-26T02:14:16.831Z,22.92
2018-01-26T02:16:47.154Z,23.06
2018-01-26T02:19:16.448Z,23.16
2018-01-26T02:21:45.689Z,23.20
2018-01-26T02:24:15.964Z,23.31
2018-01-26T02:26:45.262Z,23.38
2018-01-26T02:29:14.510Z,23.43
2018-01-26T02:31:43.787Z,23.49
2018-01-26T02:34:13.022Z,23.47
2018-01-26T02:36:42.277Z,23.50
2018-01-26T02:39:14.125Z,23.52
2018-01-26T02:41:44.338Z,23.62
2018-01-26T02:49:00.486Z,23.73
2018-01-26T02:51:30.787Z,23.77
2018-01-26T02:54:01.088Z,23.73
2018-01-26T02:56:31.349Z,23.64
2018-01-26T02:59:01.675Z,23.61
2018-01-26T03:01:31.973Z,23.56
2018-01-26T03:04:03.081Z,23.55
2018-01-26T03:06:33.856Z,23.53
2018-01-26T03:09:05.438Z,23.52
2018-01-26T03:11:35.726Z,23.53
2018-01-26T03:14:06.021Z,23.53
2018-01-26T03:16:36.274Z,23.54
2018-01-26T03:19:06.544Z,23.55
2018-01-26T03:21:36.814Z,23.56
2018-01-26T03:24:07.108Z,23.55
2018-01-26T03:26:37.365Z,23.57
2018-01-26T03:29:07.623Z,23.57
2018-01-26T03:31:37.912Z,23.55
2018-01-26T03:34:08.200Z,23.55
2018-01-26T03:36:38.961Z,23.52
2018-01-26T03:39:09.272Z,23.53
2018-01-26T03:41:39.524Z,23.54
2018-01-26T03:44:09.835Z,23.54
2018-01-26T03:46:40.154Z,23.54
2018-01-26T03:49:10.388Z,23.54
2018-01-26T03:51:40.662Z,23.55
2018-01-26T03:54:10.954Z,23.56
2018-01-26T03:56:41.258Z,23.53
2018-01-26T03:59:11.528Z,23.55
2018-01-26T04:01:41.851Z,23.55
2018-01-26T04:04:12.141Z,23.54
2018-01-26T04:06:42.417Z,23.52
2018-01-26T04:09:13.581Z,23.50
2018-01-26T04:11:43.905Z,23.56
2018-01-26T04:14:14.164Z,24.63
2018-01-26T04:16:44.494Z,24.08
2018-01-26T04:19:14.840Z,23.73
2018-01-26T04:21:45.171Z,23.72
2018-01-26T04:24:15.459Z,23.77
2018-01-26T04:26:45.729Z,23.73
2018-01-26T04:29:15.996Z,23.74
2018-01-26T04:31:47.164Z,23.75
2018-01-26T04:34:17.420Z,23.76
2018-01-26T04:36:47.681Z,23.78
2018-01-26T04:39:17.937Z,23.78
2018-01-26T04:41:48.395Z,23.91
2018-01-26T04:44:18.756Z,23.95
2018-01-26T04:46:49.031Z,24.04
2018-01-26T04:49:19.307Z,23.93
2018-01-26T04:51:49.549Z,23.92
2018-01-26T04:54:19.848Z,23.89
2018-01-26T04:56:50.094Z,23.84
2018-01-26T04:59:20.458Z,23.88
2018-01-26T05:09:13.099Z,23.70
2018-01-26T05:11:43.419Z,23.53
2018-01-26T05:14:14.667Z,23.42
2018-01-26T05:16:44.997Z,23.34
2018-01-26T05:19:15.294Z,23.31
2018-01-26T05:21:45.595Z,23.30
2018-01-26T05:24:15.958Z,23.30
2018-01-26T05:26:46.221Z,23.29
2018-01-26T05:29:16.574Z,23.30
2018-01-26T05:31:46.849Z,23.33
2018-01-26T05:34:17.117Z,23.37
2018-01-26T05:36:47.389Z,23.36
2018-01-26T05:39:17.813Z,23.38
2018-01-26T05:41:48.140Z,23.40
2018-01-26T05:44:18.580Z,23.40
2018-01-26T05:46:48.878Z,23.44
2018-01-26T05:57:10.448Z,13.66
2018-01-26T05:59:40.718Z,12.30
2018-01-26T06:02:11.033Z,12.40
2018-01-26T06:04:41.374Z,12.35
2018-01-26T06:07:11.701Z,12.36
2018-01-26T06:09:42.014Z,12.27
2018-01-26T06:12:13.013Z,12.16
2018-01-26T06:14:43.330Z,11.95
2018-01-26T06:17:13.757Z,12.02
2018-01-26T06:19:44.078Z,12.37
2018-01-26T06:22:14.470Z,12.46
2018-01-26T06:24:44.812Z,12.34
2018-01-26T06:27:15.218Z,12.21
2018-01-26T06:29:45.553Z,11.84
2018-01-26T06:32:15.930Z,11.86
2018-01-26T06:34:46.387Z,11.78
2018-01-26T06:37:16.638Z,11.64
2018-01-26T06:39:47.147Z,11.60
2018-01-26T06:42:17.521Z,11.33
2018-01-26T06:44:47.861Z,11.40
2018-01-26T06:47:18.202Z,11.31
2018-01-26T06:49:48.500Z,11.22
2018-01-26T06:52:18.802Z,11.63
2018-01-26T06:54:49.991Z,11.51
2018-01-26T06:57:21.011Z,11.10
2018-01-26T06:59:51.363Z,10.83
2018-01-26T07:02:21.673Z,10.87
2018-01-26T07:04:51.968Z,10.94
2018-01-26T07:07:22.328Z,11.09
2018-01-26T07:09:52.713Z,11.19
2018-01-26T07:12:23.143Z,11.21
2018-01-26T07:14:53.476Z,11.38
2018-01-26T07:17:23.872Z,11.62
2018-01-26T07:19:54.157Z,10.98
2018-01-26T07:22:24.473Z,11.26
2018-01-26T07:24:54.766Z,11.31
2018-01-26T07:27:25.102Z,11.91
2018-01-26T07:29:55.457Z,12.16
2018-01-26T07:32:25.788Z,11.50
2018-01-26T07:34:56.089Z,11.59
2018-01-26T07:37:26.413Z,11.62
2018-01-26T07:39:56.700Z,11.56
2018-01-26T07:42:27.037Z,11.66
2018-01-26T07:44:57.318Z,12.06
2018-01-26T07:47:27.630Z,12.43
2018-01-26T07:49:58.650Z,12.04
2018-01-26T07:52:29.018Z,11.40
2018-01-26T07:54:59.392Z,11.09
2018-01-26T07:57:29.705Z,11.86
2018-01-26T08:00:00.118Z,12.14
2018-01-26T08:02:30.525Z,12.18
2018-01-26T08:05:00.817Z,11.88
2018-01-26T08:07:31.202Z,12.63
2018-01-26T08:10:01.485Z,13.31
2018-01-26T08:12:32.628Z,13.25
2018-01-26T08:15:02.889Z,13.21
2018-01-26T08:17:33.212Z,13.34
2018-01-26T08:20:03.497Z,13.08
2018-01-26T08:22:33.801Z,12.52
2018-01-26T08:25:04.100Z,11.99
2018-01-26T08:27:34.398Z,11.50
2018-01-26T08:30:04.668Z,12.39
2018-01-26T08:32:34.943Z,12.48
2018-01-26T08:35:05.293Z,12.50
2018-01-26T08:37:35.538Z,12.05
2018-01-26T08:40:05.789Z,11.64
2018-01-26T08:42:36.060Z,11.56
2018-01-26T08:45:06.530Z,11.78
2018-01-26T08:47:36.793Z,11.59
2018-01-26T08:50:07.085Z,11.14
2018-01-26T08:52:37.369Z,11.58
2018-01-26T08:55:13.017Z,11.09
2018-01-26T08:57:43.364Z,11.10
2018-01-26T09:00:13.665Z,11.39
2018-01-26T09:02:44.065Z,11.68
2018-01-26T09:05:14.394Z,11.42
2018-01-26T09:07:44.736Z,11.38
2018-01-26T09:10:15.080Z,11.39
2018-01-26T09:12:45.429Z,11.50
2018-01-26T09:15:16.599Z,11.28
2018-01-26T09:17:47.925Z,11.28
2018-01-26T09:20:19.500Z,12.31
2018-01-26T09:22:50.820Z,12.99
2018-01-26T09:25:21.968Z,12.83
2018-01-26T09:27:53.065Z,13.05
2018-01-26T09:30:23.942Z,12.33
2018-01-26T09:32:54.921Z,12.37
2018-01-26T09:35:25.904Z,11.66
2018-01-26T09:37:57.464Z,11.32
2018-01-26T09:40:28.784Z,11.72
2018-01-26T09:42:59.570Z,11.45
2018-01-26T09:45:31.743Z,11.45
2018-01-26T09:48:03.544Z,12.13
2018-01-26T09:50:35.220Z,12.77
2018-01-26T09:53:06.640Z,13.01
2018-01-26T09:55:38.173Z,13.06
2018-01-26T09:58:10.053Z,13.28
2018-01-26T10:00:41.656Z,13.31
2018-01-26T10:03:13.584Z,13.29
2018-01-26T10:05:45.162Z,13.20
2018-01-26T10:08:17.179Z,12.86
2018-01-26T10:10:48.668Z,12.52
2018-01-26T10:13:20.507Z,12.76
2018-01-26T10:15:52.504Z,12.71
2018-01-26T10:18:23.551Z,12.98
2018-01-26T10:20:55.152Z,13.02
2018-01-26T10:23:26.210Z,12.57
2018-01-26T10:25:58.054Z,12.66
2018-01-26T10:28:28.938Z,12.76
2018-01-26T10:30:59.913Z,12.79
2018-01-26T10:33:31.208Z,12.86
2018-01-26T10:36:02.584Z,12.41
2018-01-26T10:38:33.876Z,12.88
2018-01-26T10:41:04.816Z,12.73
2018-01-26T10:43:35.742Z,12.30
2018-01-26T10:46:06.776Z,12.37
2018-01-26T10:48:38.094Z,12.77
2018-01-26T10:51:09.023Z,12.89
2018-01-26T10:53:40.000Z,12.74
2018-01-26T10:56:11.146Z,12.88
2018-01-26T10:58:42.080Z,12.88
2018-01-26T11:01:12.986Z,12.91
2018-01-26T11:03:44.169Z,12.19
2018-01-26T11:06:15.482Z,11.78
2018-01-26T11:08:46.557Z,11.91
2018-01-26T11:11:17.628Z,12.24
2018-01-26T11:13:48.713Z,12.44
2018-01-26T11:16:20.124Z,12.67
2018-01-26T11:18:51.433Z,13.00
2018-01-26T11:21:23.029Z,12.74
2018-01-26T11:23:54.103Z,12.36
2018-01-26T11:26:25.417Z,12.17
2018-01-26T11:28:57.040Z,11.50
2018-01-26T11:31:28.384Z,11.56
2018-01-26T11:33:59.238Z,11.31
2018-01-26T11:36:31.293Z,11.33
2018-01-26T11:39:03.222Z,11.40
2018-01-26T11:41:34.994Z,11.38
2018-01-26T11:44:06.173Z,12.08
2018-01-26T11:46:37.346Z,12.27
2018-01-26T11:49:09.049Z,12.45
2018-01-26T11:51:40.197Z,12.06
2018-01-26T11:54:11.751Z,11.45
2018-01-26T11:56:43.509Z,11.35
2018-01-26T11:59:14.810Z,12.47
2018-01-26T12:01:45.771Z,12.55
2018-01-26T12:04:17.544Z,12.06
2018-01-26T12:06:49.066Z,12.18
2018-01-26T12:09:20.007Z,12.34
2018-01-26T12:11:51.194Z,12.45
2018-01-26T12:14:22.504Z,12.14
2018-01-26T12:16:53.639Z,12.08
2018-01-26T12:19:25.208Z,12.42
2018-01-26T12:21:56.244Z,12.37
2018-01-26T12:24:27.313Z,12.51
2018-01-26T12:26:58.075Z,12.57
2018-01-26T12:29:29.183Z,12.53
2018-01-26T12:32:00.087Z,12.63
2018-01-26T12:34:31.237Z,12.40
2018-01-26T12:37:02.572Z,12.27
2018-01-26T12:39:33.699Z,11.93
2018-01-26T12:42:04.700Z,11.84
2018-01-26T12:44:36.237Z,11.41
2018-01-26T12:47:07.468Z,11.63
2018-01-26T12:49:38.950Z,11.93
2018-01-26T12:52:10.095Z,12.28
2018-01-26T12:54:41.149Z,12.18
2018-01-26T12:57:12.396Z,12.51
2018-01-26T12:59:43.483Z,11.67
2018-01-26T13:02:14.897Z,11.14
2018-01-26T13:04:46.185Z,11.49
2018-01-26T13:07:17.542Z,11.18
2018-01-26T13:09:49.090Z,11.11
2018-01-26T13:12:20.457Z,11.06
2018-01-26T13:14:51.346Z,12.08
2018-01-26T13:17:22.729Z,10.95
2018-01-26T13:19:54.088Z,10.45
2018-01-26T13:22:25.210Z,10.66
2018-01-26T13:24:56.361Z,10.73
2018-01-26T13:27:27.301Z,11.41
2018-01-26T13:29:58.991Z,11.31
2018-01-26T13:32:29.611Z,11.47
2018-01-26T13:35:00.762Z,11.47
2018-01-26T13:37:32.006Z,10.55
2018-01-26T13:40:02.967Z,10.43
2018-01-26T13:42:33.987Z,10.23
2018-01-26T13:45:05.134Z,9.98
2018-01-26T13:47:36.273Z,9.83
2018-01-26T13:50:07.397Z,10.32
2018-01-26T13:52:38.328Z,10.72
2018-01-26T13:55:09.710Z,11.32
2018-01-26T13:57:41.290Z,11.04
2018-01-26T14:00:12.396Z,11.24
2018-01-26T14:02:43.515Z,11.74
2018-01-26T14:05:14.590Z,11.92
2018-01-26T14:07:45.836Z,11.54
2018-01-26T14:10:17.868Z,11.68
2018-01-26T14:12:49.140Z,11.53
2018-01-26T14:15:20.493Z,11.77
2018-01-26T14:17:52.037Z,11.76
2018-01-26T14:20:23.620Z,11.80
2018-01-26T14:22:55.127Z,11.75
2018-01-26T14:25:26.090Z,11.52
2018-01-26T14:27:57.429Z,11.52
2018-01-26T14:30:28.373Z,11.55
2018-01-26T14:32:59.316Z,11.38
2018-01-26T14:35:30.691Z,10.66
2018-01-26T14:38:01.753Z,10.59
2018-01-26T14:40:32.742Z,11.20
2018-01-26T14:43:03.693Z,11.37
2018-01-26T14:45:34.960Z,11.52
2018-01-26T14:48:06.000Z,11.41
2018-01-26T14:50:37.076Z,11.44
2018-01-26T14:53:08.276Z,11.43
2018-01-26T14:55:39.637Z,11.53
2018-01-26T14:58:10.682Z,11.46
2018-01-26T15:00:41.898Z,11.56
2018-01-26T15:03:13.269Z,11.49
2018-01-26T15:05:44.603Z,11.67
2018-01-26T15:08:15.577Z,11.48
2018-01-26T15:10:46.609Z,11.58
2018-01-26T15:13:17.842Z,11.29
2018-01-26T15:15:48.937Z,11.45
2018-01-26T15:18:19.483Z,11.45
2018-01-26T15:20:50.658Z,10.30
2018-01-26T15:23:21.560Z,10.15
2018-01-26T15:25:52.302Z,11.18
2018-01-26T15:28:24.057Z,11.26
2018-01-26T15:30:55.027Z,11.19
2018-01-26T15:33:26.369Z,11.36
2018-01-26T15:35:58.131Z,11.58
2018-01-26T15:38:29.280Z,10.91
2018-01-26T15:41:00.631Z,11.20
2018-01-26T15:43:31.944Z,11.09
2018-01-26T15:46:03.095Z,11.32
2018-01-26T15:48:34.233Z,10.23
2018-01-26T15:51:05.226Z,10.57
2018-01-26T15:53:36.340Z,11.29
2018-01-26T15:56:07.461Z,11.43
2018-01-26T15:58:39.947Z,11.46
2018-01-26T16:01:10.984Z,11.22
2018-01-26T16:03:42.133Z,11.56
2018-01-26T16:06:13.264Z,11.98
2018-01-26T16:08:44.331Z,11.82
2018-01-26T16:11:15.537Z,11.67
2018-01-26T16:13:46.719Z,10.61
2018-01-26T16:16:17.873Z,10.52
2018-01-26T16:18:49.026Z,10.46
2018-01-26T16:21:20.147Z,10.19
2018-01-26T16:23:51.474Z,10.70
2018-01-26T16:26:22.597Z,10.90
2018-01-26T16:28:53.386Z,11.15
2018-01-26T16:31:24.502Z,10.93
2018-01-26T16:33:55.395Z,11.00
2018-01-26T16:36:27.719Z,11.32
2018-01-26T16:38:58.938Z,12.46
2018-01-26T16:41:30.724Z,12.95
2018-01-26T16:44:02.581Z,13.07
2018-01-26T16:46:33.877Z,13.60
2018-01-26T16:49:04.956Z,13.94
2018-01-26T16:51:36.193Z,13.84
2018-01-26T16:54:07.441Z,13.22
2018-01-26T16:56:38.483Z,12.99
2018-01-26T16:59:09.733Z,13.75
2018-01-26T17:01:41.240Z,13.23
2018-01-26T17:04:12.663Z,13.48
2018-01-26T17:06:44.819Z,13.27
2018-01-26T17:09:15.913Z,13.34
2018-01-26T17:11:46.840Z,13.84
2018-01-26T17:14:17.687Z,13.98
2018-01-26T17:16:49.578Z,14.41
2018-01-26T17:19:21.399Z,13.70
2018-01-26T17:21:53.012Z,14.17
2018-01-26T17:24:25.458Z,14.67
2018-01-26T17:26:56.412Z,14.83
2018-01-26T17:29:28.232Z,14.80
2018-01-26T17:31:59.821Z,14.49
2018-01-26T17:34:30.857Z,14.91
2018-01-26T17:37:01.852Z,15.22
2018-01-26T17:39:33.179Z,15.92
2018-01-26T17:42:03.506Z,16.06
2018-01-26T17:44:33.788Z,16.61
2018-01-26T17:47:04.124Z,16.57
2018-01-26T17:49:34.371Z,16.47
2018-01-26T17:52:04.720Z,16.93
2018-01-26T17:54:34.956Z,17.51
2018-01-26T17:57:05.208Z,17.72
2018-01-26T17:59:35.482Z,17.64
2018-01-26T18:02:06.083Z,17.92
2018-01-26T18:04:36.456Z,18.06
2018-01-26T18:07:06.748Z,18.86
2018-01-26T18:09:37.608Z,19.35
2018-01-26T18:12:07.865Z,19.68
2018-01-26T18:14:38.134Z,19.56
2018-01-26T18:17:08.469Z,20.43
2018-01-26T18:19:38.758Z,20.57
2018-01-26T18:22:09.114Z,21.51
2018-01-26T18:24:39.350Z,23.10
2018-01-26T18:27:10.491Z,23.60
2018-01-26T18:29:40.730Z,24.10
2018-01-26T18:32:10.976Z,25.30
2018-01-26T18:34:41.394Z,26.48
2018-01-26T18:37:12.469Z,28.21
2018-01-26T18:39:42.788Z,29.96
2018-01-26T18:42:13.138Z,29.18
2018-01-26T18:44:43.446Z,26.59
2018-01-26T18:47:14.662Z,28.72
2018-01-26T18:49:45.145Z,23.61
2018-01-26T18:52:15.419Z,23.16
2018-01-26T18:54:45.699Z,28.35
2018-01-26T18:57:15.990Z,32.56
2018-01-26T18:59:46.251Z,32.86
2018-01-26T19:02:17.081Z,34.06
2018-01-26T19:04:47.901Z,38.34
2018-01-26T19:07:18.713Z,39.52
2018-01-26T19:09:49.625Z,39.65
2018-01-26T19:12:20.460Z,40.05
2018-01-26T19:14:51.370Z,38.08
2018-01-26T19:17:22.228Z,41.62
2018-01-26T19:19:53.330Z,35.53
2018-01-26T19:22:24.186Z,30.61
2018-01-26T19:24:55.057Z,37.31
2018-01-26T19:27:25.964Z,39.51
2018-01-26T19:29:56.764Z,42.14
2018-01-26T19:32:27.568Z,40.34
2018-01-26T19:34:58.363Z,41.57
2018-01-26T19:37:29.188Z,43.73
2018-01-26T19:39:59.999Z,43.38
2018-01-26T19:42:30.945Z,42.05
2018-01-26T19:45:01.816Z,41.81
2018-01-26T19:47:32.608Z,43.48
2018-01-26T19:50:04.267Z,41.52
2018-01-26T19:52:36.345Z,43.44
2018-01-26T19:55:08.760Z,43.02
2018-01-26T19:57:39.817Z,44.23
2018-01-26T20:00:10.650Z,41.58
2018-01-26T20:02:41.556Z,47.42
2018-01-26T20:05:28.061Z,42.75
2018-01-26T20:16:13.873Z,29.03
2018-01-26T20:18:44.119Z,29.97
2018-01-26T20:21:14.510Z,29.70
2018-01-26T20:23:44.932Z,28.79
2018-01-26T20:26:15.535Z,29.33
2018-01-26T20:28:45.921Z,29.58
2018-01-26T20:31:16.318Z,29.71
2018-01-26T20:33:46.786Z,31.03
2018-01-26T20:36:17.037Z,30.89
2018-01-26T20:38:48.198Z,30.58
2018-01-26T20:41:18.543Z,30.09
2018-01-26T20:43:48.796Z,29.21
2018-01-26T20:46:19.169Z,29.64
2018-01-26T20:48:49.530Z,29.10
2018-01-26T20:51:19.930Z,28.64
2018-01-26T20:53:50.272Z,29.09
2018-01-26T20:56:20.511Z,29.25
2018-01-26T20:58:52.062Z,29.33
2018-01-26T21:01:23.422Z,28.94
2018-01-26T21:03:54.338Z,29.17
2018-01-26T21:06:24.758Z,29.60
2018-01-26T21:08:55.204Z,30.84
2018-01-26T21:11:25.641Z,30.01
2018-01-26T21:13:55.899Z,30.52
2018-01-26T21:16:26.160Z,31.37
2018-01-26T21:18:57.489Z,30.74
2018-01-26T21:21:27.861Z,30.88
2018-01-26T21:23:58.123Z,28.92
2018-01-26T21:26:28.422Z,27.33
2018-01-26T21:28:58.783Z,29.99
2018-01-26T21:31:29.130Z,30.80
2018-01-26T21:33:59.610Z,30.74
2018-01-26T21:36:29.984Z,30.07
2018-01-26T21:39:00.422Z,30.06
2018-01-26T21:41:30.709Z,29.73
2018-01-26T21:44:01.047Z,29.83
2018-01-26T21:46:31.376Z,30.44
2018-01-26T21:49:01.851Z,28.95
2018-01-26T21:51:32.121Z,30.21
2018-01-26T21:54:03.399Z,30.66
2018-01-26T21:56:33.907Z,30.89
2018-01-26T21:59:04.231Z,30.34
2018-01-26T22:01:34.616Z,29.81
2018-01-26T22:04:04.869Z,30.22
2018-01-26T22:06:40.081Z,29.68
2018-01-26T22:09:10.352Z,30.93
2018-01-26T22:11:40.725Z,30.30
2018-01-26T22:14:11.113Z,30.57
2018-01-26T22:16:41.916Z,30.64
2018-01-26T22:19:12.237Z,30.62
2018-01-26T22:21:42.516Z,30.18
2018-01-26T22:24:12.823Z,29.87
2018-01-26T22:26:43.116Z,28.84
2018-01-26T22:29:13.467Z,28.57
2018-01-26T22:31:43.733Z,28.87
2018-01-26T22:34:13.972Z,28.24
2018-01-26T22:36:44.421Z,25.17
2018-01-26T22:39:14.777Z,24.97
2018-01-26T22:41:45.093Z,25.40
2018-01-26T22:44:15.350Z,24.88
2018-01-26T22:46:45.792Z,24.59
2018-01-26T22:49:16.225Z,23.88
2018-01-26T22:51:46.538Z,23.60
2018-01-26T22:54:16.883Z,23.04
2018-01-26T22:56:47.218Z,22.38
2018-01-26T22:59:17.514Z,22.67
2018-01-26T23:01:47.808Z,22.47
2018-01-26T23:04:18.128Z,22.57
2018-01-26T23:06:48.404Z,22.70
2018-01-26T23:09:18.820Z,23.55
2018-01-26T23:11:49.046Z,23.24
2018-01-26T23:14:19.864Z,22.81
2018-01-26T23:16:50.187Z,23.23
2018-01-26T23:19:20.425Z,22.64
2018-01-26T23:21:50.739Z,22.43
2018-01-26T23:24:21.013Z,22.05
2018-01-26T23:26:51.376Z,22.60
2018-01-26T23:29:21.706Z,22.31
2018-01-26T23:31:52.062Z,22.23
2018-01-26T23:34:22.366Z,22.25
2018-01-26T23:36:52.675Z,21.81
2018-01-26T23:39:22.921Z,21.46
2018-01-26T23:41:53.974Z,20.97
2018-01-26T23:44:24.254Z,21.14
2018-01-26T23:46:54.581Z,21.07
2018-01-26T23:49:24.808Z,21.08
2018-01-26T23:51:55.301Z,21.23
2018-01-26T23:54:25.518Z,20.99
2018-01-26T23:56:55.885Z,20.75
2018-01-26T23:59:26.148Z,20.68
